Time;durP1;ratioP1;P1;durP2;ratioP2;P2;SDS_P1;SDS_P2;PMS_P1;PMS_P2;Temp;Humidity;BMP_temperature;BMP_pressure;BME280_temperature;BME280_humidity;BME280_pressure;Samples;Min_cycle;Max_cycle;Signal;HPM_P1;HPM_P2
2024/02/22 00:00:51;;;;;;;3.03;1.10;;;9.20;99.90;9.20;99613.00;;;;4938113;28;94074;-73
2024/02/22 00:03:17;;;;;;;2.93;1.10;;;9.30;99.90;9.20;99604.00;;;;4931738;28;87881;-72
2024/02/22 00:05:42;;;;;;;3.03;0.97;;;9.30;99.90;9.30;99605.00;;;;4934161;28;117274;-72
2024/02/22 00:08:08;;;;;;;2.03;0.70;;;9.40;99.90;9.40;99601.00;;;;4938152;28;97408;-71
2024/02/22 00:10:34;;;;;;;5.73;1.00;;;9.40;99.90;9.40;99608.00;;;;4936345;28;88091;-70
2024/02/22 00:12:59;;;;;;;1.80;0.97;;;9.50;99.90;9.50;99597.00;;;;4933362;28;118251;-70
2024/02/22 00:15:26;;;;;;;0.70;0.70;;;9.50;99.90;9.50;99596.00;;;;4936168;28;117583;-70
2024/02/22 00:17:52;;;;;;;1.00;0.90;;;9.50;99.90;9.50;99587.00;;;;4934495;28;87954;-70
2024/02/22 00:20:18;;;;;;;1.60;0.80;;;9.60;99.90;9.60;99590.00;;;;4932288;28;109822;-72
2024/02/22 00:22:47;;;;;;;0.63;0.60;;;9.60;99.90;9.60;99581.00;;;;4921131;28;109892;-70
2024/02/22 00:25:13;;;;;;;1.10;0.97;;;9.70;99.90;9.60;99584.00;;;;4933236;28;115010;-70
2024/02/22 00:27:39;;;;;;;1.27;0.63;;;9.60;99.90;9.60;99586.00;;;;4937777;28;87894;-70
2024/02/22 00:30:14;;;;;;;1.53;1.20;;;9.70;99.90;9.60;99576.00;;;;4932086;28;97217;-72
2024/02/22 00:32:43;;;;;;;2.10;0.77;;;9.70;99.90;9.60;99572.00;;;;4939440;28;87999;-70
2024/02/22 00:35:10;;;;;;;4.33;1.03;;;9.70;99.90;9.60;99572.00;;;;4936447;28;88255;-70
2024/02/22 00:37:36;;;;;;;1.17;0.83;;;9.70;99.90;9.60;99553.00;;;;4934564;28;110142;-73
2024/02/22 00:40:08;;;;;;;1.90;0.40;;;9.70;99.90;9.70;99539.00;;;;4936429;28;96177;-70
2024/02/22 00:42:34;;;;;;;1.20;0.73;;;9.70;99.80;9.70;99531.00;;;;4934134;28;90140;-71
2024/02/22 00:44:59;;;;;;;0.93;0.83;;;9.80;99.80;9.80;99527.00;;;;4937955;28;87953;-70
2024/02/22 00:47:25;;;;;;;1.30;0.50;;;9.80;99.90;9.80;99522.00;;;;4933731;28;111576;-71
2024/02/22 00:49:51;;;;;;;2.47;0.80;;;9.80;99.90;9.80;99511.00;;;;4940254;28;108190;-70
2024/02/22 00:52:16;;;;;;;0.33;0.30;;;9.90;99.90;9.70;99517.00;;;;4937005;28;88413;-71
2024/02/22 00:54:44;;;;;;;2.20;0.60;;;9.90;99.90;9.80;99512.00;;;;4937431;28;88823;-70
2024/02/22 00:57:10;;;;;;;1.67;0.90;;;9.90;99.90;9.80;99515.00;;;;4937376;28;88146;-71
2024/02/22 00:59:35;;;;;;;0.40;0.40;;;9.90;99.90;9.80;99497.00;;;;4932534;28;89094;-70
2024/02/22 01:02:02;;;;;;;0.60;0.60;;;9.90;99.90;9.80;99496.00;;;;4930654;28;116842;-71
2024/02/22 01:04:28;;;;;;;0.83;0.63;;;9.90;99.90;9.80;99492.00;;;;4934146;28;95776;-70
2024/02/22 01:06:57;;;;;;;2.60;0.90;;;9.90;99.80;9.80;99493.00;;;;4932105;28;88068;-71
2024/02/22 01:09:23;;;;;;;2.03;0.70;;;9.90;99.90;9.80;99485.00;;;;4936142;28;87712;-70
2024/02/22 01:11:49;;;;;;;1.07;0.97;;;9.90;99.70;9.80;99480.00;;;;4947702;28;114116;-71
2024/02/22 01:14:15;;;;;;;4.10;0.70;;;9.90;99.50;9.80;99471.00;;;;4933267;28;94492;-71
2024/02/22 01:16:42;;;;;;;0.60;0.60;;;9.80;99.40;9.80;99466.00;;;;4936443;28;93865;-71
2024/02/22 01:19:09;;;;;;;3.57;0.77;;;9.90;99.40;9.80;99467.00;;;;4933399;28;89001;-71
2024/02/22 01:21:34;;;;;;;0.67;0.57;;;9.90;99.30;9.80;99459.00;;;;4934913;28;91388;-71
2024/02/22 01:24:00;;;;;;;1.37;0.77;;;9.80;99.30;9.70;99453.00;;;;4928623;28;117707;-70
2024/02/22 01:26:26;;;;;;;1.00;0.80;;;9.80;99.20;9.70;99436.00;;;;4933678;28;87884;-70
2024/02/22 01:28:51;;;;;;;0.63;0.63;;;9.80;99.10;9.70;99441.00;;;;4927880;28;110318;-71
2024/02/22 01:31:17;;;;;;;1.10;0.33;;;9.80;99.30;9.70;99437.00;;;;4928058;28;117485;-70
2024/02/22 01:33:44;;;;;;;0.30;0.30;;;9.90;99.30;9.70;99437.00;;;;4932847;28;116414;-71
2024/02/22 01:36:11;;;;;;;0.70;0.70;;;9.80;99.30;9.70;99430.00;;;;4932398;28;87168;-71
2024/02/22 01:38:37;;;;;;;1.20;0.50;;;9.80;99.30;9.60;99416.00;;;;4930393;28;96627;-71
2024/02/22 01:41:03;;;;;;;6.60;1.07;;;9.70;99.40;9.60;99420.00;;;;4932965;28;89288;-71
2024/02/22 01:43:29;;;;;;;0.73;0.40;;;9.70;99.50;9.60;99418.00;;;;4933062;28;89000;-71
2024/02/22 01:45:57;;;;;;;1.50;0.67;;;9.70;99.60;9.60;99422.00;;;;4934688;28;99009;-71
2024/02/22 01:48:23;;;;;;;0.87;0.67;;;9.70;99.40;9.60;99409.00;;;;4917511;28;88066;-70
2024/02/22 01:50:53;;;;;;;1.33;0.60;;;9.60;99.50;9.50;99408.00;;;;4929285;28;118027;-71
2024/02/22 01:53:21;;;;;;;1.10;0.50;;;9.60;99.60;9.50;99395.00;;;;4928832;28;88028;-71
2024/02/22 01:55:51;;;;;;;0.40;0.30;;;9.60;99.70;9.40;99389.00;;;;4930445;28;87656;-70
2024/02/22 01:58:16;;;;;;;0.40;0.40;;;9.50;99.90;9.40;99383.00;;;;4930119;28;88274;-73
2024/02/22 02:00:42;;;;;;;1.23;0.67;;;9.50;99.90;9.40;99386.00;;;;4932190;28;112053;-71
2024/02/22 02:03:08;;;;;;;0.50;0.50;;;9.50;99.90;9.40;99373.00;;;;4940763;28;116954;-73
2024/02/22 02:05:34;;;;;;;0.60;0.47;;;9.50;99.90;9.40;99376.00;;;;4935870;28;108708;-73
2024/02/22 02:08:00;;;;;;;0.47;0.30;;;9.50;99.90;9.40;99376.00;;;;4946929;28;107133;-73
2024/02/22 02:10:26;;;;;;;0.60;0.40;;;9.50;99.90;9.40;99365.00;;;;4932455;28;117690;-73
2024/02/22 02:12:51;;;;;;;3.80;0.60;;;9.50;99.90;9.50;99358.00;;;;4930713;28;116855;-71
2024/02/22 02:15:17;;;;;;;0.70;0.50;;;9.60;99.90;9.50;99350.00;;;;4928009;28;111053;-70
2024/02/22 02:17:43;;;;;;;5.23;0.30;;;9.70;99.90;9.50;99337.00;;;;4933590;28;88172;-73
2024/02/22 02:20:10;;;;;;;0.83;0.50;;;9.50;99.90;9.50;99328.00;;;;4929915;28;88162;-70
2024/02/22 02:23:17;;;;;;;1.80;0.63;;;9.60;99.90;9.50;99330.00;;;;4932425;28;115778;-73
2024/02/22 02:25:43;;;;;;;0.30;0.30;;;9.70;99.90;9.60;99328.00;;;;4950728;28;87377;-70
2024/02/22 02:28:09;;;;;;;0.20;0.20;;;9.70;99.90;9.70;99316.00;;;;4932394;28;88376;-70
2024/02/22 02:30:35;;;;;;;0.60;0.57;;;9.70;99.90;9.70;99315.00;;;;4929030;28;117895;-70
2024/02/22 02:33:00;;;;;;;0.40;0.40;;;9.80;99.90;9.80;99318.00;;;;4927028;28;88925;-72
2024/02/22 02:35:26;;;;;;;0.20;0.20;;;9.80;99.90;9.80;99311.00;;;;4930951;28;109522;-69
2024/02/22 02:37:52;;;;;;;1.90;0.47;;;9.90;99.90;9.90;99306.00;;;;4930754;28;88001;-69
2024/02/22 02:40:17;;;;;;;0.27;0.27;;;9.90;99.90;9.90;99295.00;;;;4929070;28;117177;-72
2024/02/22 02:42:43;;;;;;;1.63;0.40;;;9.40;99.90;10.00;99292.00;;;;4932794;28;102341;-69
2024/02/22 02:45:09;;;;;;;0.13;0.13;;;10.00;99.90;10.00;99278.00;;;;4929951;28;111428;-72
2024/02/22 02:47:34;;;;;;;0.47;0.40;;;10.10;99.90;10.10;99274.00;;;;4932017;28;87735;-70
2024/02/22 02:50:00;;;;;;;0.67;0.30;;;10.10;99.90;10.10;99273.00;;;;4929347;28;118710;-69
2024/02/22 02:52:26;;;;;;;0.67;0.33;;;10.10;99.90;10.10;99258.00;;;;4927832;28;115227;-73
2024/02/22 02:54:51;;;;;;;0.50;0.40;;;10.20;99.90;10.10;99258.00;;;;4927987;28;108825;-73
2024/02/22 02:57:19;;;;;;;1.40;0.40;;;10.20;99.90;10.20;99246.00;;;;4929269;28;108752;-71
2024/02/22 02:59:45;;;;;;;0.83;0.43;;;10.30;99.90;10.20;99236.00;;;;4930630;28;88473;-71
2024/02/22 03:02:10;;;;;;;0.40;0.40;;;10.30;99.90;10.30;99224.00;;;;4927195;28;117711;-71
2024/02/22 03:04:36;;;;;;;1.30;0.57;;;10.30;99.90;10.30;99224.00;;;;4930282;28;109084;-69
2024/02/22 03:07:02;;;;;;;0.77;0.43;;;10.40;99.90;10.30;99221.00;;;;4930829;28;91285;-69
2024/02/22 03:09:28;;;;;;;4.00;0.50;;;10.40;99.80;10.30;99219.00;;;;4931166;28;89102;-71
2024/02/22 03:11:54;;;;;;;0.60;0.60;;;10.40;99.70;10.30;99220.00;;;;4932269;28;94647;-70
2024/02/22 03:14:19;;;;;;;0.50;0.40;;;10.40;99.90;10.30;99209.00;;;;4930637;28;109463;-70
2024/02/22 03:16:45;;;;;;;0.97;0.47;;;10.30;99.70;10.30;99211.00;;;;4931140;28;109299;-72
2024/02/22 03:19:10;;;;;;;0.47;0.37;;;10.40;99.90;10.30;99209.00;;;;4926462;28;118353;-70
2024/02/22 03:21:37;;;;;;;1.00;0.70;;;10.40;99.90;10.30;99196.00;;;;4929699;28;118168;-70
2024/02/22 03:24:03;;;;;;;2.00;0.77;;;10.30;99.90;10.30;99195.00;;;;4929661;28;110136;-70
2024/02/22 03:26:30;;;;;;;0.50;0.50;;;10.40;99.90;10.20;99194.00;;;;4926732;28;87899;-71
2024/02/22 03:28:55;;;;;;;0.93;0.50;;;10.30;99.90;10.20;99193.00;;;;4928228;28;116806;-71
2024/02/22 03:31:22;;;;;;;0.40;0.40;;;10.30;99.90;10.20;99195.00;;;;4925682;28;117744;-73
2024/02/22 03:33:48;;;;;;;0.93;0.73;;;10.30;99.90;10.20;99185.00;;;;4915359;28;88245;-70
2024/02/22 03:36:13;;;;;;;1.73;0.50;;;10.20;99.90;10.10;99190.00;;;;4928383;28;108210;-72
2024/02/22 03:38:39;;;;;;;0.63;0.60;;;10.20;99.90;10.10;99175.00;;;;4931641;28;109925;-70
2024/02/22 03:41:05;;;;;;;0.57;0.40;;;10.30;99.90;10.10;99184.00;;;;4932342;28;87969;-70
2024/02/22 03:43:31;;;;;;;2.03;0.57;;;10.20;99.90;10.10;99182.00;;;;4930466;28;95499;-70
2024/02/22 03:45:57;;;;;;;1.13;0.67;;;10.20;99.90;10.00;99186.00;;;;4927605;28;88861;-71
2024/02/22 03:48:22;;;;;;;0.60;0.50;;;10.20;99.90;10.00;99170.00;;;;4916367;28;117028;-72
2024/02/22 03:50:48;;;;;;;1.40;1.03;;;10.10;99.90;10.00;99175.00;;;;4929440;28;117397;-71
2024/02/22 03:53:15;;;;;;;1.37;0.70;;;10.10;99.90;10.00;99171.00;;;;4924394;28;110574;-69
2024/02/22 03:55:44;;;;;;;0.70;0.60;;;10.00;99.90;9.90;99166.00;;;;4928509;28;87954;-70
2024/02/22 03:58:09;;;;;;;0.73;0.47;;;10.00;99.90;9.90;99158.00;;;;4928741;28;117282;-72
2024/02/22 04:00:35;;;;;;;2.80;0.67;;;10.00;99.90;9.90;99151.00;;;;4926644;28;117666;-70
2024/02/22 04:03:02;;;;;;;0.60;0.60;;;10.00;99.90;9.80;99148.00;;;;4936260;28;87413;-71
2024/02/22 04:05:28;;;;;;;0.90;0.60;;;9.90;99.90;9.70;99155.00;;;;4930592;28;88192;-74
2024/02/22 04:07:54;;;;;;;5.00;0.93;;;9.80;99.90;9.50;99139.00;;;;4935062;28;88864;-72
2024/02/22 04:10:20;;;;;;;1.77;0.63;;;9.60;99.90;9.20;99139.00;;;;4926738;28;109006;-73
2024/02/22 04:12:47;;;;;;;0.53;0.53;;;9.40;99.90;9.00;99137.00;;;;4930684;28;88134;-73
2024/02/22 04:15:13;;;;;;;3.80;0.83;;;9.20;99.90;8.90;99132.00;;;;4929007;28;88420;-74
2024/02/22 04:17:39;;;;;;;1.03;0.50;;;9.00;99.90;8.70;99130.00;;;;4930360;28;106685;-76
2024/02/22 04:20:07;;;;;;;0.20;0.20;;;8.90;99.90;8.60;99125.00;;;;4927033;28;117245;-74
2024/02/22 04:22:47;;;;;;;0.97;0.57;;;8.80;99.90;8.50;99121.00;;;;4924355;28;87783;-76
2024/02/22 04:25:12;;;;;;;1.63;0.97;;;8.70;99.90;8.40;99115.00;;;;4942216;28;87991;-76
2024/02/22 04:27:38;;;;;;;0.50;0.40;;;8.60;99.90;8.40;99121.00;;;;4923726;28;116363;-74
2024/02/22 04:30:04;;;;;;;0.67;0.60;;;8.50;99.90;8.30;99112.00;;;;4928675;28;115036;-74
2024/02/22 04:32:30;;;;;;;1.47;0.80;;;8.50;99.90;8.20;99117.00;;;;4928841;28;101741;-73
2024/02/22 04:34:56;;;;;;;0.50;0.50;;;8.40;99.90;8.20;99117.00;;;;4932694;28;108658;-74
2024/02/22 04:37:21;;;;;;;1.60;0.97;;;8.30;99.90;8.10;99111.00;;;;4934587;28;117353;-74
2024/02/22 04:39:47;;;;;;;1.50;0.30;;;8.30;99.90;8.00;99096.00;;;;4935081;28;115241;-74
2024/02/22 04:42:13;;;;;;;2.13;1.30;;;8.20;99.90;8.00;99104.00;;;;4938095;28;94958;-76
2024/02/22 04:44:39;;;;;;;0.57;0.47;;;8.20;99.90;8.00;99097.00;;;;4934512;28;87989;-77
2024/02/22 04:47:05;;;;;;;1.57;1.03;;;8.10;99.90;7.90;99099.00;;;;4930948;28;88642;-74
2024/02/22 04:49:30;;;;;;;1.07;1.03;;;8.10;99.90;7.90;99085.00;;;;4934965;28;111513;-75
2024/02/22 04:51:56;;;;;;;0.73;0.60;;;8.10;99.90;7.90;99087.00;;;;4932443;28;111657;-74
2024/02/22 04:54:22;;;;;;;0.43;0.37;;;8.00;99.90;7.90;99079.00;;;;4933710;28;94030;-75
2024/02/22 04:56:47;;;;;;;0.50;0.50;;;8.00;99.90;7.90;99085.00;;;;4931270;28;105374;-74
2024/02/22 04:59:13;;;;;;;1.00;0.63;;;8.00;99.90;7.80;99083.00;;;;4911807;28;117462;-74
2024/02/22 05:01:39;;;;;;;0.40;0.40;;;7.90;99.90;7.80;99074.00;;;;4940386;28;110858;-73
2024/02/22 05:04:05;;;;;;;2.93;0.90;;;8.00;99.90;7.80;99075.00;;;;4913574;28;87833;-78
2024/02/22 05:06:31;;;;;;;1.90;1.33;;;7.90;99.90;7.80;99062.00;;;;4944980;28;88065;-76
2024/02/22 05:08:56;;;;;;;7.60;2.67;;;7.90;99.90;7.80;99051.00;;;;4916089;28;87670;-74
2024/02/22 05:11:22;;;;;;;2.60;1.13;;;8.00;99.90;7.80;99049.00;;;;4915162;28;87856;-74
2024/02/22 05:13:50;;;;;;;1.87;1.40;;;7.90;99.90;7.70;99041.00;;;;4919884;28;106959;-73
2024/02/22 05:16:15;;;;;;;1.33;0.93;;;7.90;99.90;7.70;99042.00;;;;4914996;28;88286;-74
2024/02/22 05:18:41;;;;;;;1.30;0.70;;;7.80;99.90;7.70;99028.00;;;;4901806;28;118556;-73
2024/02/22 05:21:08;;;;;;;1.70;1.23;;;7.90;99.90;7.70;99014.00;;;;4913866;28;110155;-72
2024/02/22 05:23:33;;;;;;;1.23;1.13;;;7.90;99.90;7.70;99019.00;;;;4915242;28;88973;-74
2024/02/22 05:25:59;;;;;;;2.83;0.97;;;7.90;99.90;7.70;99007.00;;;;4912587;28;118207;-72
2024/02/22 05:28:25;;;;;;;1.20;1.10;;;7.90;99.90;7.70;98996.00;;;;4916973;28;88708;-73
2024/02/22 05:30:51;;;;;;;0.67;0.67;;;7.90;99.90;7.70;98994.00;;;;4915872;28;87729;-71
2024/02/22 05:33:16;;;;;;;3.30;0.83;;;7.90;99.90;7.70;98989.00;;;;4915316;28;87840;-73
2024/02/22 05:35:42;;;;;;;1.63;0.63;;;7.80;99.90;7.70;98992.00;;;;4916132;28;116469;-73
2024/02/22 05:38:09;;;;;;;0.80;0.70;;;7.90;99.90;7.70;98975.00;;;;4919132;28;87930;-73
2024/02/22 05:40:34;;;;;;;2.77;0.87;;;7.90;99.90;7.80;98974.00;;;;4914272;28;108384;-73
2024/02/22 05:43:00;;;;;;;0.90;0.80;;;7.90;99.90;7.80;98979.00;;;;4920767;28;108001;-71
2024/02/22 05:45:44;;;;;;;1.40;1.03;;;7.90;99.90;7.70;98974.00;;;;4914223;28;117444;-70
2024/02/22 05:48:10;;;;;;;1.47;1.37;;;7.90;99.90;7.70;98968.00;;;;4915548;28;88684;-71
2024/02/22 05:50:35;;;;;;;1.10;0.80;;;7.90;99.90;7.80;98963.00;;;;4912234;28;111737;-73
2024/02/22 05:53:01;;;;;;;1.13;0.90;;;7.90;99.90;7.80;98974.00;;;;4941216;28;108011;-73
2024/02/22 05:55:28;;;;;;;1.37;0.93;;;7.90;99.90;7.80;98965.00;;;;4910998;28;88420;-71
2024/02/22 05:57:54;;;;;;;2.03;1.43;;;7.90;99.90;7.80;98959.00;;;;4914701;28;88681;-71
2024/02/22 06:00:19;;;;;;;1.80;0.80;;;8.00;99.90;7.80;98948.00;;;;4910796;28;87832;-72
2024/02/22 06:02:45;;;;;;;1.90;1.27;;;7.90;99.90;7.80;98951.00;;;;4910761;28;95349;-71
2024/02/22 06:05:12;;;;;;;1.57;0.67;;;7.90;99.90;7.80;98947.00;;;;4915151;28;117448;-71
2024/02/22 06:07:37;;;;;;;2.00;1.00;;;7.90;99.90;7.80;98943.00;;;;4917517;28;88191;-71
2024/02/22 06:10:04;;;;;;;0.50;0.50;;;7.90;99.90;7.80;98938.00;;;;4913864;28;112531;-72
2024/02/22 06:12:30;;;;;;;0.93;0.80;;;7.90;99.90;7.80;98930.00;;;;4911743;28;88874;-71
2024/02/22 06:14:55;;;;;;;0.93;0.83;;;7.90;99.90;7.80;98933.00;;;;4915621;28;115545;-71
2024/02/22 06:17:21;;;;;;;0.87;0.87;;;7.80;99.90;7.80;98921.00;;;;4917180;28;90566;-72
2024/02/22 06:19:48;;;;;;;0.83;0.50;;;7.90;99.90;7.70;98937.00;;;;4916697;28;110876;-71
2024/02/22 06:22:13;;;;;;;1.47;1.37;;;7.90;99.90;7.70;98915.00;;;;4915140;28;108053;-73
2024/02/22 06:24:39;;;;;;;2.17;1.10;;;7.90;99.90;7.70;98922.00;;;;4922010;28;88522;-72
2024/02/22 06:27:04;;;;;;;1.63;0.93;;;7.80;99.90;7.70;98924.00;;;;4914417;28;117074;-70
2024/02/22 06:29:30;;;;;;;1.80;1.13;;;7.90;99.90;7.70;98912.00;;;;4915810;28;110599;-72
2024/02/22 06:31:56;;;;;;;1.10;0.73;;;7.80;99.90;7.70;98912.00;;;;4916527;28;87990;-70
2024/02/22 06:34:22;;;;;;;2.57;1.07;;;7.90;99.90;7.70;98901.00;;;;4914412;28;112426;-72
2024/02/22 06:36:47;;;;;;;0.90;0.90;;;7.90;99.90;7.70;98902.00;;;;4915923;28;116862;-72
2024/02/22 06:39:13;;;;;;;1.23;0.67;;;7.80;99.90;7.80;98902.00;;;;4913215;28;108868;-72
2024/02/22 06:41:39;;;;;;;1.23;1.07;;;7.90;99.90;7.80;98913.00;;;;4946728;28;108009;-72
2024/02/22 06:44:04;;;;;;;1.70;1.07;;;7.90;99.90;7.80;98897.00;;;;4916191;28;117760;-72
2024/02/22 06:46:30;;;;;;;1.23;0.90;;;8.00;99.90;7.80;98896.00;;;;4915325;28;116781;-72
2024/02/22 06:48:56;;;;;;;1.07;0.70;;;7.90;99.90;7.80;98896.00;;;;4917325;28;87714;-71
2024/02/22 06:51:24;;;;;;;0.93;0.80;;;7.90;99.90;7.80;98894.00;;;;4915743;28;109224;-72
2024/02/22 06:53:50;;;;;;;1.33;0.87;;;7.90;99.90;7.80;98894.00;;;;4917574;28;89025;-71
2024/02/22 06:56:16;;;;;;;0.60;0.60;;;8.00;99.90;7.80;98887.00;;;;4919182;28;87902;-71
2024/02/22 06:58:41;;;;;;;1.10;1.00;;;8.00;99.90;7.80;98882.00;;;;4920805;28;87828;-71
2024/02/22 07:01:07;;;;;;;1.10;0.73;;;8.00;99.90;7.90;98872.00;;;;4927943;28;108132;-71
2024/02/22 07:03:32;;;;;;;5.43;2.77;;;8.00;99.90;7.90;98873.00;;;;4916362;28;118123;-72
2024/02/22 07:06:00;;;;;;;1.57;1.07;;;8.00;99.90;7.90;98869.00;;;;4943392;28;116871;-70
2024/02/22 07:08:25;;;;;;;1.73;1.23;;;8.00;99.90;7.90;98868.00;;;;4914394;28;103096;-72
2024/02/22 07:10:51;;;;;;;0.50;0.50;;;8.00;99.90;7.90;98861.00;;;;4914236;28;109154;-71
2024/02/22 07:13:17;;;;;;;0.87;0.70;;;8.00;99.90;7.90;98862.00;;;;4913184;28;118549;-70
2024/02/22 07:15:42;;;;;;;3.27;1.97;;;8.10;99.90;7.90;98850.00;;;;4918927;28;116396;-71
2024/02/22 07:18:08;;;;;;;3.50;1.90;;;8.10;99.90;7.90;98850.00;;;;4912512;28;110367;-71
2024/02/22 07:20:34;;;;;;;1.67;1.47;;;8.10;99.90;8.00;98842.00;;;;4939987;28;108894;-72
2024/02/22 07:22:59;;;;;;;3.77;1.40;;;8.10;99.90;8.00;98850.00;;;;4914506;28;90264;-73
2024/02/22 07:25:25;;;;;;;1.43;0.93;;;8.10;99.90;8.00;98841.00;;;;4942507;28;89041;-73
2024/02/22 07:27:51;;;;;;;2.57;1.57;;;8.10;99.90;8.00;98844.00;;;;4913253;28;87801;-72
2024/02/22 07:30:16;;;;;;;2.50;1.57;;;8.10;99.90;8.00;98837.00;;;;4913968;28;87870;-71
2024/02/22 07:32:43;;;;;;;0.97;0.63;;;8.10;99.90;8.00;98843.00;;;;4912991;28;111021;-72
2024/02/22 07:35:09;;;;;;;1.07;0.80;;;8.10;99.90;8.10;98829.00;;;;4914004;28;89006;-71
2024/02/22 07:37:34;;;;;;;3.73;1.67;;;8.20;99.90;8.10;98843.00;;;;4914660;28;87773;-72
2024/02/22 07:40:00;;;;;;;2.50;1.70;;;8.20;99.90;8.10;98842.00;;;;4918950;28;88138;-70
2024/02/22 07:42:26;;;;;;;2.43;1.77;;;8.20;99.90;8.10;98833.00;;;;4913015;28;88520;-71
2024/02/22 07:44:52;;;;;;;3.40;1.60;;;8.20;99.90;8.10;98830.00;;;;4914424;28;87925;-74
2024/02/22 07:47:18;;;;;;;2.80;1.87;;;8.20;99.90;8.10;98826.00;;;;4945054;28;108119;-71
2024/02/22 07:49:44;;;;;;;5.03;2.10;;;8.20;99.90;8.20;98828.00;;;;4909772;28;108043;-72
2024/02/22 07:52:10;;;;;;;2.97;1.17;;;8.30;99.90;8.20;98823.00;;;;4942344;28;88679;-71
2024/02/22 07:54:38;;;;;;;1.00;0.70;;;8.40;99.90;8.20;98818.00;;;;4909319;28;117333;-74
2024/02/22 07:57:04;;;;;;;3.43;2.30;;;8.30;99.90;8.20;98825.00;;;;4914856;28;87866;-70
2024/02/22 07:59:30;;;;;;;1.20;1.10;;;8.30;99.90;8.30;98810.00;;;;4918676;28;87847;-72
2024/02/22 08:01:56;;;;;;;2.10;0.93;;;8.40;99.90;8.30;98814.00;;;;4915428;28;116851;-72
2024/02/22 08:04:23;;;;;;;0.90;0.80;;;8.40;99.90;8.30;98817.00;;;;4910526;28;117111;-72
2024/02/22 08:06:50;;;;;;;1.20;1.10;;;8.40;99.90;8.30;98810.00;;;;4918680;28;87197;-73
2024/02/22 08:09:15;;;;;;;3.67;1.53;;;8.40;99.90;8.30;98814.00;;;;4917921;28;87792;-73
2024/02/22 08:11:41;;;;;;;1.83;1.00;;;8.40;99.90;8.40;98812.00;;;;4920494;28;117745;-72
2024/02/22 08:14:08;;;;;;;2.30;1.20;;;8.40;99.90;8.40;98806.00;;;;4944423;28;117363;-74
2024/02/22 08:16:33;;;;;;;0.93;0.93;;;8.50;99.90;8.40;98806.00;;;;4920651;28;87873;-72
2024/02/22 08:18:59;;;;;;;2.57;1.30;;;8.50;99.90;8.40;98799.00;;;;4917926;28;108330;-75
2024/02/22 08:21:25;;;;;;;1.90;0.87;;;8.50;99.90;8.40;98793.00;;;;4942847;28;90680;-73
2024/02/22 08:23:55;;;;;;;1.13;0.80;;;8.60;99.90;8.40;98786.00;;;;4915380;28;114956;-73
2024/02/22 08:26:21;;;;;;;1.83;0.63;;;8.50;99.90;8.40;98782.00;;;;4918999;28;91082;-73
2024/02/22 08:28:47;;;;;;;1.83;1.47;;;8.50;99.90;8.40;98779.00;;;;4919558;28;92007;-70
2024/02/22 08:31:13;;;;;;;1.17;0.90;;;8.50;99.90;8.40;98787.00;;;;4923024;28;112171;-72
2024/02/22 08:33:38;;;;;;;1.13;0.93;;;8.60;99.90;8.40;98781.00;;;;4917060;28;89376;-71
2024/02/22 08:36:05;;;;;;;2.53;1.30;;;8.60;99.90;8.50;98777.00;;;;4919749;28;91744;-72
2024/02/22 08:38:31;;;;;;;0.63;0.60;;;8.50;99.90;8.50;98770.00;;;;4919905;28;89005;-75
2024/02/22 08:40:57;;;;;;;3.20;1.33;;;8.50;99.90;8.50;98777.00;;;;4915896;28;88736;-74
2024/02/22 08:43:22;;;;;;;2.33;1.17;;;8.50;99.90;8.50;98771.00;;;;4919186;28;116771;-72
2024/02/22 08:45:49;;;;;;;2.53;2.33;;;8.60;99.90;8.50;98755.00;;;;4921228;28;111082;-72
2024/02/22 08:48:14;;;;;;;1.67;1.13;;;8.60;99.90;8.50;98758.00;;;;4916899;28;87769;-73
2024/02/22 08:50:42;;;;;;;0.73;0.60;;;8.60;99.90;8.50;98760.00;;;;4931888;28;89778;-71
2024/02/22 08:53:07;;;;;;;1.97;1.07;;;8.60;99.90;8.50;98763.00;;;;4912711;28;87935;-73
2024/02/22 08:55:33;;;;;;;0.93;0.67;;;8.60;99.90;8.50;98750.00;;;;4920968;28;87170;-73
2024/02/22 08:57:59;;;;;;;1.33;0.80;;;8.60;99.90;8.60;98760.00;;;;4914538;28;109135;-70
2024/02/22 09:00:25;;;;;;;1.20;1.07;;;8.60;99.90;8.60;98757.00;;;;4920852;28;93335;-70
2024/02/22 09:02:51;;;;;;;1.37;0.87;;;8.60;99.90;8.60;98755.00;;;;4914722;28;90211;-74
2024/02/22 09:05:16;;;;;;;1.20;1.10;;;8.70;99.90;8.60;98751.00;;;;4917463;28;87890;-71
2024/02/22 09:07:42;;;;;;;1.27;1.17;;;8.70;99.90;8.60;98743.00;;;;4915063;28;108294;-72
2024/02/22 09:10:08;;;;;;;2.70;0.83;;;8.70;99.90;8.70;98742.00;;;;4915725;28;114956;-71
2024/02/22 09:12:35;;;;;;;1.17;1.07;;;8.70;99.90;8.70;98743.00;;;;4910695;28;108197;-72
2024/02/22 09:15:02;;;;;;;2.10;1.00;;;8.80;99.90;8.70;98736.00;;;;4910260;28;87819;-72
2024/02/22 09:17:27;;;;;;;0.97;0.77;;;8.80;99.90;8.80;98736.00;;;;4915472;28;87777;-70
2024/02/22 09:19:53;;;;;;;1.10;0.80;;;8.80;99.90;8.80;98730.00;;;;4914408;28;87239;-71
2024/02/22 09:22:20;;;;;;;1.10;1.00;;;8.90;99.90;8.80;98725.00;;;;4912040;28;116875;-73
2024/02/22 09:24:46;;;;;;;0.60;0.60;;;8.90;99.90;8.90;98724.00;;;;4918483;28;87786;-70
2024/02/22 09:27:15;;;;;;;1.77;0.90;;;8.90;99.90;8.90;98724.00;;;;4916845;28;88828;-71
2024/02/22 09:29:42;;;;;;;0.93;0.60;;;8.90;99.90;8.90;98721.00;;;;4918032;28;88107;-70
2024/02/22 09:32:08;;;;;;;0.60;0.60;;;8.90;99.90;8.90;98725.00;;;;4921805;28;88001;-74
2024/02/22 09:34:34;;;;;;;1.70;0.80;;;9.00;99.90;8.90;98716.00;;;;4916336;28;102486;-75
2024/02/22 09:37:02;;;;;;;0.50;0.50;;;9.00;99.90;8.90;98719.00;;;;4932315;28;88136;-72
2024/02/22 09:39:32;;;;;;;0.87;0.70;;;9.10;99.90;8.90;98711.00;;;;4947880;28;88334;-76
2024/02/22 09:41:58;;;;;;;1.43;0.67;;;8.90;99.90;8.90;98707.00;;;;4944153;28;103023;-76
2024/02/22 09:44:26;;;;;;;1.03;0.83;;;9.00;99.90;8.90;98721.00;;;;4930655;28;100746;-75
2024/02/22 09:46:55;;;;;;;1.90;1.40;;;9.00;99.90;8.90;98708.00;;;;4946705;28;88196;-73
2024/02/22 09:49:24;;;;;;;1.83;0.97;;;9.00;99.90;9.00;98706.00;;;;4916891;28;87913;-73
2024/02/22 09:51:51;;;;;;;1.30;1.13;;;9.00;99.90;9.00;98707.00;;;;4915836;28;96174;-72
2024/02/22 09:54:19;;;;;;;1.27;1.10;;;9.10;99.90;9.00;98704.00;;;;4912260;28;87776;-72
2024/02/22 09:56:47;;;;;;;1.47;0.90;;;9.10;99.90;9.10;98708.00;;;;4914350;28;88567;-72
2024/02/22 09:59:13;;;;;;;1.17;0.67;;;9.10;99.90;9.10;98706.00;;;;4914884;28;89223;-72
2024/02/22 10:01:43;;;;;;;2.23;1.10;;;9.20;99.90;9.20;98694.00;;;;4930962;28;88077;-75
2024/02/22 10:04:19;;;;;;;1.60;1.13;;;9.20;99.90;9.20;98696.00;;;;4914934;28;87839;-73
2024/02/22 10:06:48;;;;;;;0.53;0.53;;;9.30;99.90;9.30;98682.00;;;;4894833;28;88145;-74
2024/02/22 10:09:14;;;;;;;0.47;0.47;;;9.50;99.90;9.30;98682.00;;;;4912258;28;115327;-74
2024/02/22 10:11:45;;;;;;;1.27;0.73;;;9.40;99.90;9.50;98682.00;;;;4918699;28;87769;-75
2024/02/22 10:14:16;;;;;;;0.97;0.97;;;9.50;99.90;9.60;98681.00;;;;4947419;28;88003;-72
2024/02/22 10:16:45;;;;;;;2.30;1.10;;;9.60;99.90;9.70;98680.00;;;;4916587;28;88950;-71
2024/02/22 10:19:15;;;;;;;0.77;0.70;;;9.70;99.90;9.80;98666.00;;;;4916134;28;88313;-70
2024/02/22 10:21:41;;;;;;;1.00;0.67;;;9.80;99.90;9.90;98669.00;;;;4914297;28;118374;-72
2024/02/22 10:24:08;;;;;;;1.17;0.97;;;9.90;99.90;10.00;98662.00;;;;4917043;28;110770;-71
2024/02/22 10:26:34;;;;;;;2.07;0.80;;;10.10;99.90;10.10;98650.00;;;;4945991;28;88010;-72
2024/02/22 10:29:07;;;;;;;2.83;0.70;;;10.10;99.90;10.20;98641.00;;;;4947932;28;88426;-72
2024/02/22 10:31:47;;;;;;;0.53;0.50;;;10.30;99.90;10.30;98646.00;;;;4918498;28;88541;-70
2024/02/22 10:34:14;;;;;;;1.27;0.80;;;10.30;99.90;10.30;98646.00;;;;4930534;28;103092;-71
2024/02/22 10:36:42;;;;;;;1.27;0.87;;;10.30;99.90;10.40;98638.00;;;;4918694;28;87782;-71
2024/02/22 10:39:09;;;;;;;0.87;0.73;;;10.40;99.90;10.40;98627.00;;;;4950956;28;89247;-71
2024/02/22 10:41:35;;;;;;;2.87;0.90;;;10.50;99.90;10.50;98632.00;;;;4917993;28;89052;-71
2024/02/22 10:44:06;;;;;;;2.40;0.90;;;10.50;99.90;10.50;98638.00;;;;4920959;28;103597;-71
2024/02/22 10:46:38;;;;;;;0.90;0.70;;;10.60;99.90;10.50;98619.00;;;;4922034;28;88280;-71
2024/02/22 10:49:10;;;;;;;1.27;0.60;;;10.70;99.90;10.50;98622.00;;;;4918841;28;88034;-71
2024/02/22 10:51:39;;;;;;;0.73;0.50;;;10.70;99.90;10.60;98627.00;;;;4914285;28;88458;-70
2024/02/22 10:54:09;;;;;;;1.10;0.70;;;10.70;99.90;10.60;98619.00;;;;4917707;28;87807;-70
2024/02/22 10:56:41;;;;;;;1.17;0.70;;;10.70;99.90;10.70;98620.00;;;;4917086;28;88057;-70
2024/02/22 10:59:12;;;;;;;0.67;0.67;;;10.70;99.90;10.70;98609.00;;;;4914240;28;109985;-70